createdAt,value
2019-04-07T00:02:21.483Z,117.10
2019-04-07T00:04:51.040Z,113.63
2019-04-07T00:07:20.405Z,118.33
2019-04-07T00:09:50.317Z,114.80
2019-04-07T00:12:19.808Z,113.37
2019-04-07T00:14:49.110Z,121.63
2019-04-07T00:17:21.211Z,115.53
2019-04-07T00:19:50.681Z,117.90
2019-04-07T00:22:20.001Z,114.73
2019-04-07T00:24:55.916Z,114.10
2019-04-07T00:27:33.522Z,114.80
2019-04-07T00:30:07.637Z,117.03
2019-04-07T00:32:36.928Z,114.30
2019-04-07T00:35:06.303Z,115.73
2019-04-07T00:37:36.237Z,113.53
2019-04-07T00:40:06.914Z,119.37
2019-04-07T00:42:36.359Z,115.10
2019-04-07T00:45:06.238Z,109.67
2019-04-07T00:47:36.081Z,118.17
2019-04-07T00:50:05.621Z,113.03
2019-04-07T00:52:34.997Z,105.07
2019-04-07T00:55:06.836Z,109.20
2019-04-07T00:57:36.311Z,107.37
2019-04-07T01:00:07.678Z,99.43
2019-04-07T01:02:39.852Z,112.50
2019-04-07T01:05:09.493Z,101.00
2019-04-07T01:07:38.882Z,108.40
2019-04-07T01:10:08.753Z,109.07
2019-04-07T01:12:38.570Z,107.07
2019-04-07T01:15:07.948Z,96.60
2019-04-07T01:17:37.244Z,103.93
2019-04-07T01:20:07.352Z,103.97
2019-04-07T01:22:37.247Z,105.03
2019-04-07T01:25:07.198Z,108.43
2019-04-07T01:27:36.665Z,108.10
2019-04-07T01:30:06.368Z,100.93
2019-04-07T01:32:35.707Z,115.30
2019-04-07T01:35:05.744Z,107.77
2019-04-07T01:37:35.311Z,108.90
2019-04-07T01:40:05.680Z,107.73
2019-04-07T01:42:44.380Z,104.93
2019-04-07T01:45:42.279Z,109.83
2019-04-07T01:48:27.150Z,107.47
2019-04-07T01:51:24.628Z,106.67
2019-04-07T01:54:16.337Z,107.37
2019-04-07T01:56:55.596Z,110.30
2019-04-07T01:59:49.678Z,109.50
2019-04-07T02:02:29.222Z,105.30
2019-04-07T02:05:06.721Z,110.67
2019-04-07T02:07:52.368Z,118.60
2019-04-07T02:10:39.517Z,112.80
2019-04-07T02:13:28.880Z,110.27
2019-04-07T02:16:14.815Z,115.97
2019-04-07T02:18:55.407Z,110.97
2019-04-07T02:21:29.611Z,112.50
2019-04-07T02:24:24.544Z,119.83
2019-04-07T02:27:06.771Z,112.37
2019-04-07T02:30:01.857Z,109.40
2019-04-07T02:33:00.070Z,109.40
2019-04-07T02:35:56.043Z,113.33
2019-04-07T02:38:39.973Z,120.17
2019-04-07T02:41:30.956Z,109.87
2019-04-07T02:44:17.926Z,119.43
2019-04-07T02:47:00.777Z,118.13
2019-04-07T02:49:56.189Z,115.60
2019-04-07T02:52:51.355Z,122.70
2019-04-07T02:55:33.559Z,116.73
2019-04-07T02:58:19.258Z,122.07
2019-04-07T03:01:04.067Z,122.53
2019-04-07T03:03:48.776Z,116.13
2019-04-07T03:06:37.706Z,121.73
2019-04-07T03:09:06.376Z,119.43
2019-04-07T03:11:42.668Z,126.10
2019-04-07T03:14:43.427Z,123.30
2019-04-07T03:17:31.842Z,119.67
2019-04-07T03:20:20.068Z,126.60
2019-04-07T03:23:13.137Z,121.47
2019-04-07T03:26:00.864Z,122.63
2019-04-07T03:28:45.413Z,119.37
2019-04-07T03:31:44.073Z,127.80
2019-04-07T03:34:32.881Z,124.87
2019-04-07T03:37:22.947Z,126.33
2019-04-07T03:40:02.559Z,126.53
2019-04-07T03:43:00.068Z,136.83
2019-04-07T03:45:38.193Z,124.03
2019-04-07T03:48:16.290Z,121.20
2019-04-07T03:51:01.509Z,132.93
2019-04-07T03:53:59.445Z,125.20
2019-04-07T03:56:47.702Z,130.63
2019-04-07T03:59:38.918Z,126.80
2019-04-07T04:02:33.320Z,127.13
2019-04-07T04:05:27.372Z,127.63
2019-04-07T04:08:04.069Z,132.00
2019-04-07T04:10:55.692Z,132.07
2019-04-07T04:13:51.039Z,135.17
2019-04-07T04:16:25.769Z,127.30
2019-04-07T04:18:55.115Z,136.60
2019-04-07T04:21:24.416Z,130.83
2019-04-07T04:23:53.648Z,135.67
2019-04-07T04:26:23.716Z,110.53
2019-04-07T04:28:53.240Z,121.47
2019-04-07T04:31:22.492Z,134.13
2019-04-07T04:33:51.831Z,125.30
2019-04-07T04:36:22.056Z,121.43
2019-04-07T04:38:52.438Z,129.00
2019-04-07T04:41:23.141Z,126.97
2019-04-07T04:43:53.435Z,127.13
2019-04-07T04:46:23.644Z,132.33
2019-04-07T04:48:53.129Z,123.57
2019-04-07T04:51:22.338Z,133.93
2019-04-07T04:53:51.765Z,129.97
2019-04-07T04:56:22.753Z,131.13
2019-04-07T04:58:53.143Z,131.37
2019-04-07T05:01:23.035Z,128.93
2019-04-07T05:03:52.544Z,127.30
2019-04-07T05:06:21.893Z,129.27
2019-04-07T05:08:51.221Z,122.03
2019-04-07T05:11:21.171Z,129.87
2019-04-07T05:13:50.502Z,124.40
2019-04-07T05:16:19.801Z,129.17
2019-04-07T05:18:49.187Z,120.57
2019-04-07T05:21:18.589Z,128.10
2019-04-07T05:23:48.056Z,119.13
2019-04-07T05:26:17.977Z,121.97
2019-04-07T05:28:47.241Z,124.20
2019-04-07T05:31:16.491Z,126.57
2019-04-07T05:33:46.442Z,126.27
2019-04-07T05:36:15.870Z,117.80
2019-04-07T05:38:45.514Z,115.07
2019-04-07T05:41:14.967Z,115.00
2019-04-07T05:43:44.773Z,114.73
2019-04-07T05:46:14.002Z,118.57
2019-04-07T05:48:43.619Z,107.80
2019-04-07T05:51:13.396Z,105.70
2019-04-07T05:53:46.464Z,108.60
2019-04-07T05:56:13.669Z,110.40
2019-04-07T05:58:43.809Z,104.30
2019-04-07T06:01:14.008Z,98.37
2019-04-07T06:03:43.633Z,99.50
2019-04-07T06:06:13.476Z,108.83
2019-04-07T06:08:42.860Z,107.60
2019-04-07T06:11:13.591Z,104.17
2019-04-07T06:13:44.622Z,98.27
2019-04-07T06:16:14.064Z,103.83
2019-04-07T06:18:44.443Z,96.77
2019-04-07T06:21:15.317Z,96.03
2019-04-07T06:23:45.366Z,98.13
2019-04-07T06:26:15.090Z,98.13
2019-04-07T06:28:48.480Z,96.27
2019-04-07T06:31:15.377Z,95.27
2019-04-07T06:33:44.675Z,87.00
2019-04-07T06:36:17.507Z,91.30
2019-04-07T06:38:49.830Z,93.27
2019-04-07T06:41:16.151Z,87.13
2019-04-07T06:43:45.448Z,96.07
2019-04-07T06:46:36.879Z,89.80
2019-04-07T06:49:27.834Z,90.90
2019-04-07T06:52:07.441Z,92.87
2019-04-07T06:55:07.737Z,88.57
2019-04-07T06:57:59.222Z,89.27
2019-04-07T07:00:46.200Z,92.37
2019-04-07T07:03:35.863Z,88.13
2019-04-07T07:06:21.980Z,80.60
2019-04-07T07:09:19.308Z,83.80
2019-04-07T07:12:22.434Z,92.23
2019-04-07T07:15:10.052Z,82.93
2019-04-07T07:17:48.622Z,78.20
2019-04-07T07:20:30.208Z,84.53
2019-04-07T07:23:05.901Z,83.47
2019-04-07T07:25:35.236Z,82.33
2019-04-07T07:28:04.529Z,78.73
2019-04-07T07:30:33.777Z,78.90
2019-04-07T07:33:07.352Z,78.67
2019-04-07T07:35:34.335Z,78.00
2019-04-07T07:38:03.793Z,79.00
2019-04-07T07:40:34.938Z,77.63
2019-04-07T07:43:04.422Z,75.10
2019-04-07T07:45:33.701Z,73.73
2019-04-07T07:48:03.135Z,68.87
2019-04-07T07:50:36.760Z,70.07
2019-04-07T07:53:03.622Z,66.17
2019-04-07T07:55:35.971Z,65.80
2019-04-07T07:58:04.052Z,71.80
2019-04-07T08:00:34.511Z,70.30
2019-04-07T08:03:04.862Z,63.73
2019-04-07T08:05:34.681Z,66.10
2019-04-07T08:08:05.836Z,69.97
2019-04-07T08:10:35.226Z,65.50
2019-04-07T08:13:07.723Z,64.90
2019-04-07T08:15:36.152Z,67.27
2019-04-07T08:18:07.615Z,62.40
2019-04-07T08:20:36.425Z,67.37
2019-04-07T08:23:05.818Z,64.70
2019-04-07T08:25:37.844Z,60.17
2019-04-07T08:28:07.100Z,59.20
2019-04-07T08:30:37.158Z,56.23
2019-04-07T08:33:07.273Z,57.77
2019-04-07T08:35:39.486Z,56.07
2019-04-07T08:38:11.058Z,54.17
2019-04-07T08:40:40.526Z,57.30
2019-04-07T08:43:09.849Z,57.27
2019-04-07T08:45:39.802Z,56.10
2019-04-07T08:48:09.162Z,57.60
2019-04-07T08:50:38.394Z,55.17
2019-04-07T08:53:10.330Z,59.33
2019-04-07T08:55:40.533Z,56.20
2019-04-07T08:58:09.954Z,56.53
2019-04-07T09:00:46.315Z,57.57
2019-04-07T09:03:15.868Z,53.20
2019-04-07T09:05:45.493Z,55.50
2019-04-07T09:08:15.052Z,58.33
2019-04-07T09:10:49.534Z,55.80
2019-04-07T09:13:33.163Z,58.27
2019-04-07T09:16:20.021Z,55.17
2019-04-07T09:19:08.385Z,54.53
2019-04-07T09:22:09.530Z,54.93
2019-04-07T09:24:53.203Z,56.13
2019-04-07T09:27:46.033Z,58.30
2019-04-07T09:30:26.286Z,51.17
2019-04-07T09:33:18.107Z,52.73
2019-04-07T09:36:01.533Z,53.87
2019-04-07T09:39:03.848Z,56.07
2019-04-07T09:41:43.133Z,52.83
2019-04-07T09:44:30.882Z,56.00
2019-04-07T09:47:23.706Z,53.73
2019-04-07T09:50:16.291Z,54.70
2019-04-07T09:53:04.769Z,52.37
2019-04-07T09:55:55.365Z,51.03
2019-04-07T09:58:43.604Z,50.10
2019-04-07T10:01:31.856Z,53.57
2019-04-07T10:04:08.778Z,55.20
2019-04-07T10:07:00.065Z,49.30
2019-04-07T10:09:48.390Z,51.07
2019-04-07T10:12:40.408Z,49.50
2019-04-07T10:15:44.271Z,52.37
2019-04-07T10:18:41.666Z,48.57
2019-04-07T10:21:28.145Z,49.77
2019-04-07T10:24:15.324Z,52.63
2019-04-07T10:27:12.650Z,50.30
2019-04-07T10:29:50.301Z,46.57
2019-04-07T10:32:39.527Z,50.77
2019-04-07T10:35:27.056Z,49.13
2019-04-07T10:38:15.425Z,48.27
2019-04-07T10:41:12.920Z,48.67
2019-04-07T10:44:01.562Z,48.00
2019-04-07T10:46:39.510Z,43.77
2019-04-07T10:49:30.627Z,45.83
2019-04-07T10:52:09.276Z,44.37
2019-04-07T10:54:43.873Z,48.47
2019-04-07T10:57:40.149Z,43.13
2019-04-07T11:00:26.543Z,44.17
2019-04-07T11:03:21.272Z,44.60
2019-04-07T11:06:02.712Z,43.13
2019-04-07T11:08:53.843Z,41.03
2019-04-07T11:11:43.817Z,40.80
2019-04-07T11:14:35.162Z,42.13
2019-04-07T11:17:27.258Z,42.77
2019-04-07T11:20:19.352Z,40.93
2019-04-07T11:23:13.861Z,41.70
2019-04-07T11:26:05.804Z,41.77
2019-04-07T11:28:46.861Z,35.87
2019-04-07T11:31:24.286Z,36.07
2019-04-07T11:34:00.856Z,33.57
2019-04-07T11:36:49.850Z,35.73
2019-04-07T11:39:26.367Z,35.37
2019-04-07T11:42:15.279Z,31.70
2019-04-07T11:45:00.206Z,31.93
2019-04-07T11:47:58.052Z,31.23
2019-04-07T11:50:41.906Z,33.03
2019-04-07T11:53:19.962Z,34.40
2019-04-07T11:55:58.707Z,29.93
2019-04-07T11:58:49.861Z,26.43
2019-04-07T12:01:50.982Z,26.10
2019-04-07T12:04:42.270Z,21.40
2019-04-07T12:07:29.253Z,23.53
2019-04-07T12:10:15.864Z,17.70
2019-04-07T12:13:03.688Z,18.27
2019-04-07T12:15:50.887Z,17.57
2019-04-07T12:18:54.548Z,16.83
2019-04-07T12:21:35.436Z,19.07
2019-04-07T12:24:24.634Z,18.80
2019-04-07T12:27:11.657Z,18.13
2019-04-07T12:30:00.143Z,20.10
2019-04-07T12:32:37.981Z,18.40
2019-04-07T12:35:41.588Z,17.77
2019-04-07T12:38:27.421Z,18.47
2019-04-07T12:41:32.027Z,19.17
2019-04-07T12:44:21.698Z,19.30
2019-04-07T12:47:10.235Z,20.60
2019-04-07T12:49:57.298Z,22.53
2019-04-07T12:52:46.269Z,23.20
2019-04-07T12:55:30.524Z,22.20
2019-04-07T12:58:17.053Z,22.73
2019-04-07T13:01:19.777Z,21.63
2019-04-07T13:04:06.043Z,21.80
2019-04-07T13:06:45.205Z,22.27
2019-04-07T13:09:33.106Z,20.67
2019-04-07T13:12:34.303Z,19.30
2019-04-07T13:15:26.302Z,19.73
2019-04-07T13:18:13.531Z,18.30
2019-04-07T13:21:02.213Z,18.70
2019-04-07T13:23:38.470Z,18.80
2019-04-07T13:26:19.674Z,20.27
2019-04-07T13:29:14.619Z,21.07
2019-04-07T13:31:58.176Z,22.17
2019-04-07T13:34:46.757Z,19.90
2019-04-07T13:37:23.432Z,21.20
2019-04-07T13:40:12.963Z,20.97
2019-04-07T13:43:13.370Z,20.70
2019-04-07T13:46:17.588Z,21.53
2019-04-07T13:48:51.619Z,21.07
2019-04-07T13:51:36.661Z,21.73
2019-04-07T13:54:20.097Z,23.47
2019-04-07T13:57:25.894Z,20.20
2019-04-07T14:00:16.887Z,20.43
2019-04-07T14:03:05.881Z,22.93
2019-04-07T14:05:54.617Z,19.83
2019-04-07T14:08:45.965Z,22.23
2019-04-07T14:11:32.969Z,20.90
2019-04-07T14:14:29.201Z,22.97
2019-04-07T14:17:11.526Z,23.30
2019-04-07T14:19:48.803Z,20.50
2019-04-07T14:22:38.866Z,21.13
2019-04-07T14:25:26.710Z,20.93
2019-04-07T14:28:09.966Z,22.67
2019-04-07T14:30:59.839Z,21.27
2019-04-07T14:33:49.094Z,20.23
2019-04-07T14:36:42.721Z,20.60
2019-04-07T14:39:33.911Z,22.27
2019-04-07T14:42:10.060Z,21.33
2019-04-07T14:44:52.247Z,19.17
2019-04-07T14:47:30.385Z,18.87
2019-04-07T14:50:23.169Z,19.47
2019-04-07T14:53:12.089Z,24.57
2019-04-07T14:55:51.371Z,19.53
2019-04-07T14:58:58.415Z,20.97
2019-04-07T15:01:36.834Z,19.63
2019-04-07T15:04:06.447Z,21.37
2019-04-07T15:06:36.595Z,18.83
2019-04-07T15:09:17.622Z,19.37
2019-04-07T15:11:58.774Z,18.17
2019-04-07T15:14:31.469Z,19.57
2019-04-07T15:16:59.223Z,19.50
2019-04-07T15:19:28.844Z,22.13
2019-04-07T15:21:59.833Z,19.73
2019-04-07T15:24:29.537Z,21.13
2019-04-07T15:26:59.310Z,23.87
2019-04-07T15:29:28.885Z,22.17
2019-04-07T15:31:58.604Z,20.33
2019-04-07T15:34:28.558Z,19.77
2019-04-07T15:36:57.950Z,19.23
2019-04-07T15:39:29.613Z,19.53
2019-04-07T15:41:58.127Z,19.20
2019-04-07T15:44:27.378Z,18.60
2019-04-07T15:46:57.472Z,19.50
2019-04-07T15:49:28.317Z,21.87
2019-04-07T15:51:58.046Z,20.67
2019-04-07T15:54:27.507Z,18.27
2019-04-07T15:56:58.582Z,21.67
2019-04-07T15:59:29.731Z,23.40
2019-04-07T16:01:58.718Z,22.30
2019-04-07T16:04:29.481Z,18.60
2019-04-07T16:07:00.136Z,22.20
2019-04-07T16:09:38.420Z,20.67
2019-04-07T16:12:00.603Z,19.03
2019-04-07T16:14:30.887Z,20.10
2019-04-07T16:17:03.886Z,18.33
2019-04-07T16:19:38.852Z,19.40
2019-04-07T16:22:04.295Z,19.90
2019-04-07T16:24:34.692Z,20.83
2019-04-07T16:27:05.742Z,22.00
2019-04-07T16:29:35.113Z,19.87
2019-04-07T16:32:08.135Z,19.97
2019-04-07T16:34:39.044Z,21.37
2019-04-07T16:37:09.425Z,20.93
2019-04-07T16:39:41.386Z,20.03
2019-04-07T16:42:10.822Z,21.07
2019-04-07T16:44:43.906Z,20.40
2019-04-07T16:47:19.309Z,20.93
2019-04-07T16:49:47.381Z,19.33
2019-04-07T16:52:13.535Z,21.07
2019-04-07T16:54:44.614Z,21.70
2019-04-07T16:57:13.809Z,22.37
2019-04-07T16:59:43.620Z,21.20
2019-04-07T17:02:14.502Z,21.60
2019-04-07T17:04:43.873Z,22.80
2019-04-07T17:07:15.655Z,19.90
2019-04-07T17:09:44.679Z,20.67
2019-04-07T17:12:14.940Z,19.40
2019-04-07T17:14:44.826Z,19.33
2019-04-07T17:17:18.074Z,20.10
2019-04-07T17:19:45.738Z,18.13
2019-04-07T17:22:16.726Z,21.37
2019-04-07T17:24:46.122Z,19.30
2019-04-07T17:27:16.069Z,20.17
2019-04-07T17:29:45.973Z,21.43
2019-04-07T17:32:16.878Z,25.17
2019-04-07T17:34:46.560Z,21.47
2019-04-07T17:37:18.945Z,21.87
2019-04-07T17:39:57.292Z,21.67
2019-04-07T17:42:28.304Z,22.00
2019-04-07T17:45:10.965Z,20.47
2019-04-07T17:48:09.817Z,23.50
2019-04-07T17:51:08.561Z,22.30
2019-04-07T17:53:52.833Z,23.40
2019-04-07T17:56:41.805Z,23.07
2019-04-07T17:59:38.442Z,22.30
2019-04-07T18:02:16.128Z,21.83
2019-04-07T18:05:13.381Z,22.77
2019-04-07T18:07:58.631Z,21.27
2019-04-07T18:10:50.759Z,22.10
2019-04-07T18:13:49.902Z,24.20
2019-04-07T18:16:35.258Z,21.57
2019-04-07T18:19:27.120Z,23.67
2019-04-07T18:22:13.684Z,22.57
2019-04-07T18:25:02.304Z,22.27
2019-04-07T18:27:47.394Z,21.60
2019-04-07T18:30:42.648Z,22.70
2019-04-07T18:33:30.190Z,24.07
2019-04-07T18:36:13.577Z,22.70
2019-04-07T18:39:04.645Z,22.57
2019-04-07T18:42:10.633Z,23.97
2019-04-07T18:44:56.273Z,23.50
2019-04-07T18:47:42.838Z,26.67
2019-04-07T18:50:30.730Z,21.67
2019-04-07T18:53:17.841Z,22.57
2019-04-07T18:56:15.272Z,25.83
2019-04-07T18:59:02.300Z,23.80
2019-04-07T19:01:53.292Z,22.90
2019-04-07T19:04:50.330Z,22.77
2019-04-07T19:07:30.458Z,24.23
2019-04-07T19:10:25.123Z,22.50
2019-04-07T19:13:15.941Z,20.47
2019-04-07T19:16:01.927Z,23.53
2019-04-07T19:18:59.342Z,22.93
2019-04-07T19:21:47.535Z,22.83
2019-04-07T19:24:25.489Z,23.60
2019-04-07T19:27:17.731Z,23.43
2019-04-07T19:30:05.871Z,20.37
2019-04-07T19:32:55.543Z,21.13
2019-04-07T19:35:49.770Z,23.03
2019-04-07T19:38:41.288Z,21.77
2019-04-07T19:41:33.775Z,21.50
2019-04-07T19:44:18.902Z,23.67
2019-04-07T19:47:01.618Z,20.33
2019-04-07T19:49:54.475Z,24.00
2019-04-07T19:52:41.467Z,23.33
2019-04-07T19:55:35.558Z,21.50
2019-04-07T19:58:17.719Z,21.83
2019-04-07T20:01:15.198Z,20.97
2019-04-07T20:04:02.642Z,19.07
2019-04-07T20:07:01.291Z,20.50
2019-04-07T20:09:45.811Z,21.23
2019-04-07T20:12:38.179Z,21.50
2019-04-07T20:15:36.508Z,22.07
2019-04-07T20:18:24.295Z,21.87
2019-04-07T20:21:15.913Z,23.13
2019-04-07T20:24:10.130Z,21.27
2019-04-07T20:26:56.470Z,22.20
2019-04-07T20:29:51.710Z,21.10
2019-04-07T20:32:39.098Z,20.53
2019-04-07T20:35:38.205Z,20.13
2019-04-07T20:38:32.578Z,22.10
2019-04-07T20:41:25.943Z,20.83
2019-04-07T20:44:01.143Z,19.40
2019-04-07T20:46:43.650Z,20.27
2019-04-07T20:49:32.868Z,21.00
2019-04-07T20:52:22.242Z,23.20
2019-04-07T20:55:08.811Z,21.47
2019-04-07T20:58:10.181Z,20.37
2019-04-07T21:00:55.959Z,20.43
2019-04-07T21:03:45.057Z,20.13
2019-04-07T21:06:29.921Z,18.63
2019-04-07T21:09:35.869Z,20.27
2019-04-07T21:12:25.035Z,22.40
2019-04-07T21:15:21.284Z,21.80
2019-04-07T21:18:02.064Z,20.43
2019-04-07T21:21:11.792Z,20.40
2019-04-07T21:23:59.385Z,19.27
2019-04-07T21:26:45.975Z,19.57
2019-04-07T21:29:35.199Z,22.97
2019-04-07T21:32:33.269Z,23.23
2019-04-07T21:35:19.457Z,23.63
2019-04-07T21:38:20.843Z,22.07
2019-04-07T21:41:12.160Z,24.87
2019-04-07T21:43:48.848Z,23.20
2019-04-07T21:46:30.983Z,22.83
2019-04-07T21:49:07.774Z,22.00
2019-04-07T21:51:49.434Z,26.10
2019-04-07T21:54:39.085Z,22.30
2019-04-07T21:57:36.484Z,20.40
2019-04-07T22:00:20.937Z,23.67
2019-04-07T22:02:59.763Z,22.53
2019-04-07T22:05:37.352Z,22.43
2019-04-07T22:08:17.355Z,20.97
2019-04-07T22:10:49.919Z,24.10
2019-04-07T22:13:16.577Z,24.80
2019-04-07T22:15:49.627Z,21.50
2019-04-07T22:18:17.365Z,23.10
2019-04-07T22:20:47.874Z,24.33
2019-04-07T22:23:17.678Z,21.93
2019-04-07T22:25:50.857Z,20.17
2019-04-07T22:28:20.678Z,21.77
2019-04-07T22:30:50.887Z,22.97
2019-04-07T22:33:23.007Z,24.57
2019-04-07T22:35:51.332Z,21.50
2019-04-07T22:38:23.083Z,20.03
2019-04-07T22:40:52.174Z,21.43
2019-04-07T22:43:21.463Z,23.07
2019-04-07T22:45:58.994Z,21.07
2019-04-07T22:48:25.261Z,22.60
2019-04-07T22:50:53.792Z,21.30
2019-04-07T22:53:27.300Z,21.77
2019-04-07T22:55:55.259Z,22.03
2019-04-07T22:58:24.571Z,21.77
2019-04-07T23:00:54.301Z,23.83
2019-04-07T23:03:23.989Z,21.33
2019-04-07T23:05:53.416Z,23.50
2019-04-07T23:08:22.670Z,21.67
2019-04-07T23:10:51.967Z,20.27
2019-04-07T23:13:21.697Z,20.87
2019-04-07T23:15:51.192Z,21.73
2019-04-07T23:18:20.950Z,20.73
2019-04-07T23:20:50.305Z,21.10
2019-04-07T23:23:19.592Z,22.03
2019-04-07T23:25:48.815Z,20.00
2019-04-07T23:28:18.822Z,22.80
2019-04-07T23:30:49.204Z,23.30
2019-04-07T23:33:18.485Z,20.47
2019-04-07T23:35:47.717Z,22.70
2019-04-07T23:38:16.989Z,21.37
2019-04-07T23:40:46.217Z,21.37
2019-04-07T23:43:15.505Z,24.03
2019-04-07T23:45:44.827Z,21.63
2019-04-07T23:48:14.140Z,22.93
2019-04-07T23:50:43.591Z,23.47
2019-04-07T23:53:49.255Z,21.63
2019-04-07T23:56:18.475Z,22.53
2019-04-07T23:58:47.671Z,24.17
